createdAt,value
2018-06-04T00:02:24.728Z,16.60
2018-06-04T00:04:53.207Z,16.60
2018-06-04T00:07:21.673Z,16.60
2018-06-04T00:09:50.155Z,16.50
2018-06-04T00:12:18.659Z,16.50
2018-06-04T00:14:47.143Z,16.40
2018-06-04T00:17:15.627Z,16.40
2018-06-04T00:19:44.085Z,16.40
2018-06-04T00:22:12.639Z,16.30
2018-06-04T00:24:41.092Z,16.40
2018-06-04T00:27:09.714Z,16.30
2018-06-04T00:29:38.196Z,16.20
2018-06-04T00:32:06.739Z,16.20
2018-06-04T00:34:35.194Z,16.20
2018-06-04T00:37:03.721Z,16.20
2018-06-04T00:39:32.178Z,16.10
2018-06-04T00:42:00.766Z,16.10
2018-06-04T00:44:29.234Z,16.10
2018-06-04T00:46:57.997Z,16.10
2018-06-04T00:49:26.462Z,16.10
2018-06-04T00:51:55.002Z,16.10
2018-06-04T00:54:23.469Z,16.00
2018-06-04T00:56:51.971Z,16.00
2018-06-04T00:59:20.410Z,15.90
2018-06-04T01:01:48.948Z,15.90
2018-06-04T01:04:17.416Z,15.90
2018-06-04T01:06:45.945Z,15.80
2018-06-04T01:09:14.419Z,15.80
2018-06-04T01:11:42.962Z,15.80
2018-06-04T01:14:11.431Z,15.80
2018-06-04T01:16:39.919Z,15.80
2018-06-04T01:19:08.503Z,15.90
2018-06-04T01:21:36.991Z,16.00
2018-06-04T01:24:05.471Z,15.90
2018-06-04T01:26:33.949Z,15.90
2018-06-04T01:29:02.438Z,15.90
2018-06-04T01:31:30.913Z,15.80
2018-06-04T01:33:59.378Z,15.70
2018-06-04T01:36:27.861Z,15.60
2018-06-04T01:38:56.353Z,15.60
2018-06-04T01:41:24.901Z,15.70
2018-06-04T01:43:53.383Z,15.60
2018-06-04T01:46:21.851Z,15.70
2018-06-04T01:48:50.368Z,15.60
2018-06-04T01:51:18.860Z,15.50
2018-06-04T01:53:47.393Z,15.50
2018-06-04T01:56:15.909Z,15.50
2018-06-04T01:58:44.352Z,15.50
2018-06-04T02:01:12.897Z,15.40
2018-06-04T02:03:41.361Z,15.40
2018-06-04T02:06:09.874Z,15.40
2018-06-04T02:08:38.323Z,15.40
2018-06-04T02:11:07.219Z,15.40
2018-06-04T02:13:35.722Z,15.40
2018-06-04T02:16:04.231Z,15.40
2018-06-04T02:18:32.690Z,15.40
2018-06-04T02:21:01.208Z,15.40
2018-06-04T02:23:29.671Z,15.40
2018-06-04T02:25:58.127Z,15.40
2018-06-04T02:28:26.591Z,15.40
2018-06-04T02:30:55.073Z,15.40
2018-06-04T02:33:23.531Z,15.30
2018-06-04T02:35:51.992Z,15.30
2018-06-04T02:38:20.505Z,15.20
2018-06-04T02:40:48.977Z,15.20
2018-06-04T02:43:17.479Z,15.20
2018-06-04T02:45:45.947Z,15.20
2018-06-04T02:48:14.441Z,15.10
2018-06-04T02:50:42.915Z,15.10
2018-06-04T02:53:11.378Z,15.00
2018-06-04T02:55:39.896Z,14.90
2018-06-04T02:58:08.347Z,14.90
2018-06-04T03:00:36.828Z,15.00
2018-06-04T03:03:05.320Z,15.00
2018-06-04T03:05:33.776Z,14.90
2018-06-04T03:08:02.267Z,14.90
2018-06-04T03:10:30.750Z,14.80
2018-06-04T03:12:59.226Z,14.90
2018-06-04T03:15:27.683Z,14.90
2018-06-04T03:17:56.167Z,15.00
2018-06-04T03:20:24.622Z,15.00
2018-06-04T03:22:53.293Z,15.00
2018-06-04T03:25:21.736Z,14.90
2018-06-04T03:27:50.247Z,14.90
2018-06-04T03:30:18.700Z,14.80
2018-06-04T03:32:47.177Z,14.80
2018-06-04T03:35:15.647Z,14.70
2018-06-04T03:37:44.079Z,14.60
2018-06-04T03:40:12.648Z,14.60
2018-06-04T03:42:41.121Z,14.70
2018-06-04T03:45:09.667Z,14.70
2018-06-04T03:47:38.271Z,14.80
2018-06-04T03:50:06.731Z,14.80
2018-06-04T03:55:03.337Z,14.80
2018-06-04T03:57:31.848Z,14.80
2018-06-04T04:00:00.327Z,14.90
2018-06-04T04:02:28.827Z,14.90
2018-06-04T04:04:57.295Z,14.90
2018-06-04T04:07:25.778Z,15.00
2018-06-04T04:09:54.319Z,15.00
2018-06-04T04:12:22.781Z,15.00
2018-06-04T04:14:51.233Z,15.00
2018-06-04T04:17:19.719Z,15.00
2018-06-04T04:19:48.179Z,15.20
2018-06-04T04:22:17.599Z,15.30
2018-06-04T04:24:46.168Z,15.30
2018-06-04T04:27:14.676Z,15.30
2018-06-04T04:29:43.142Z,15.30
2018-06-04T04:32:11.582Z,15.30
2018-06-04T04:34:40.082Z,15.40
2018-06-04T04:37:08.784Z,15.40
2018-06-04T04:39:37.259Z,15.50
2018-06-04T04:42:05.709Z,15.60
2018-06-04T04:44:34.172Z,15.60
2018-06-04T04:47:02.616Z,15.70
2018-06-04T04:49:31.125Z,15.80
2018-06-04T04:51:59.742Z,16.00
2018-06-04T04:54:28.276Z,16.00
2018-06-04T04:56:57.017Z,16.10
2018-06-04T04:59:25.627Z,16.00
2018-06-04T05:01:54.055Z,16.10
2018-06-04T05:04:22.543Z,16.00
2018-06-04T05:06:51.106Z,16.10
2018-06-04T05:09:19.575Z,16.10
2018-06-04T05:11:48.136Z,16.20
2018-06-04T05:14:16.610Z,16.20
2018-06-04T05:16:45.083Z,16.30
2018-06-04T05:19:13.560Z,16.30
2018-06-04T05:21:42.072Z,16.50
2018-06-04T05:24:10.579Z,16.50
2018-06-04T05:26:39.231Z,16.70
2018-06-04T05:29:07.706Z,16.80
2018-06-04T05:31:36.205Z,16.90
2018-06-04T05:34:04.722Z,17.00
2018-06-04T05:36:33.213Z,17.00
2018-06-04T05:39:01.680Z,17.10
2018-06-04T05:41:30.242Z,17.20
2018-06-04T05:43:58.696Z,17.30
2018-06-04T05:46:27.164Z,17.50
2018-06-04T05:48:55.646Z,17.60
2018-06-04T05:51:24.190Z,17.60
2018-06-04T05:53:52.645Z,17.70
2018-06-04T05:56:21.140Z,17.80
2018-06-04T05:58:49.632Z,17.90
2018-06-04T06:01:18.077Z,18.10
2018-06-04T06:03:46.555Z,18.20
2018-06-04T06:06:15.062Z,18.40
2018-06-04T06:08:43.523Z,18.50
2018-06-04T06:11:11.989Z,18.70
2018-06-04T06:13:40.478Z,18.90
2018-06-04T06:16:08.923Z,19.00
2018-06-04T06:18:37.454Z,19.20
2018-06-04T06:21:06.023Z,19.30
2018-06-04T06:23:34.506Z,19.40
2018-06-04T06:26:03.014Z,19.60
2018-06-04T06:28:31.470Z,19.80
2018-06-04T06:30:59.981Z,20.00
2018-06-04T06:33:28.459Z,20.20
2018-06-04T06:35:56.943Z,20.50
2018-06-04T06:38:25.414Z,20.60
2018-06-04T06:40:53.982Z,20.70
2018-06-04T06:43:22.479Z,20.60
2018-06-04T06:45:50.979Z,21.00
2018-06-04T06:48:19.510Z,21.30
2018-06-04T06:50:48.005Z,21.60
2018-06-04T06:53:16.462Z,22.20
2018-06-04T06:55:44.947Z,23.10
2018-06-04T06:58:13.510Z,24.10
2018-06-04T07:00:42.045Z,25.10
2018-06-04T07:03:10.679Z,25.80
2018-06-04T07:05:39.177Z,26.70
2018-06-04T07:08:07.621Z,27.00
2018-06-04T07:10:36.178Z,27.70
2018-06-04T07:13:04.728Z,27.30
2018-06-04T07:15:33.230Z,27.70
2018-06-04T07:18:01.740Z,27.80
2018-06-04T07:20:30.191Z,28.50
2018-06-04T07:22:58.677Z,29.00
2018-06-04T07:25:27.215Z,29.50
2018-06-04T07:27:55.697Z,29.60
2018-06-04T07:30:24.263Z,29.60
2018-06-04T07:32:52.788Z,30.00
2018-06-04T07:35:21.238Z,30.30
2018-06-04T07:37:49.718Z,30.00
2018-06-04T07:40:18.161Z,30.00
2018-06-04T07:42:46.619Z,31.00
2018-06-04T07:45:15.192Z,31.40
2018-06-04T07:47:43.642Z,31.40
2018-06-04T07:50:16.345Z,31.20
2018-06-04T07:52:45.215Z,31.10
2018-06-04T07:55:13.750Z,31.50
2018-06-04T07:57:42.216Z,31.10
2018-06-04T08:00:10.704Z,31.20
2018-06-04T08:02:39.315Z,31.40
2018-06-04T08:05:07.851Z,32.60
2018-06-04T08:07:36.506Z,33.10
2018-06-04T08:10:05.404Z,33.40
2018-06-04T08:12:33.937Z,33.30
2018-06-04T08:15:02.460Z,33.60
2018-06-04T08:17:30.933Z,33.50
2018-06-04T08:19:59.404Z,33.90
2018-06-04T08:22:28.101Z,33.20
2018-06-04T08:24:56.549Z,33.80
2018-06-04T08:27:25.062Z,34.50
2018-06-04T08:29:53.518Z,34.70
2018-06-04T08:32:22.090Z,34.70
2018-06-04T08:34:53.554Z,33.50
2018-06-04T08:37:22.040Z,33.70
2018-06-04T08:39:50.545Z,34.60
2018-06-04T08:42:19.124Z,34.90
2018-06-04T08:44:47.660Z,34.80
2018-06-04T08:47:16.189Z,34.00
2018-06-04T08:49:44.784Z,34.00
2018-06-04T08:52:13.273Z,34.30
2018-06-04T08:54:41.787Z,34.00
2018-06-04T08:57:10.249Z,35.00
2018-06-04T08:59:38.706Z,35.20
2018-06-04T09:02:07.276Z,34.20
2018-06-04T09:04:35.768Z,34.60
2018-06-04T09:07:04.229Z,35.10
2018-06-04T09:12:01.032Z,34.30
2018-06-04T09:14:29.699Z,33.80
2018-06-04T09:16:58.302Z,32.90
2018-06-04T09:19:26.786Z,32.00
2018-06-04T09:21:55.298Z,32.20
2018-06-04T09:24:23.786Z,34.90
2018-06-04T09:26:52.347Z,35.30
2018-06-04T09:29:20.829Z,33.50
2018-06-04T09:31:49.453Z,34.80
2018-06-04T09:34:17.926Z,35.70
2018-06-04T09:36:46.383Z,35.60
2018-06-04T09:39:14.908Z,34.50
2018-06-04T09:44:11.506Z,33.80
2018-06-04T09:46:39.991Z,32.90
2018-06-04T09:49:08.484Z,34.60
2018-06-04T09:51:36.953Z,36.00
2018-06-04T09:54:05.552Z,35.90
2018-06-04T09:56:34.032Z,35.90
2018-06-04T09:59:02.532Z,34.30
2018-06-04T10:01:30.999Z,34.80
2018-06-04T10:03:59.518Z,34.30
2018-06-04T10:08:56.313Z,33.40
2018-06-04T10:11:24.787Z,33.00
2018-06-04T10:13:53.232Z,33.60
2018-06-04T10:18:50.061Z,31.90
2018-06-04T10:21:18.530Z,32.30
2018-06-04T10:23:46.988Z,32.80
2018-06-04T10:26:15.455Z,32.10
2018-06-04T10:28:43.955Z,31.30
2018-06-04T10:31:12.616Z,31.50
2018-06-04T10:33:41.119Z,31.10
2018-06-04T10:36:09.666Z,31.90
2018-06-04T10:38:38.159Z,32.30
2018-06-04T10:43:34.895Z,32.40
2018-06-04T10:46:03.376Z,32.70
2018-06-04T10:48:31.843Z,30.80
2018-06-04T10:51:00.288Z,30.40
2018-06-04T10:53:28.802Z,30.70
2018-06-04T10:55:57.253Z,31.50
2018-06-04T10:58:25.712Z,31.60
2018-06-04T11:00:54.174Z,31.10
2018-06-04T11:03:22.626Z,30.80
2018-06-04T11:05:51.234Z,31.10
2018-06-04T11:08:19.696Z,30.40
2018-06-04T11:10:48.154Z,30.70
2018-06-04T11:13:16.909Z,31.10
2018-06-04T11:18:13.661Z,31.00
2018-06-04T11:20:42.242Z,30.90
2018-06-04T11:23:10.728Z,31.10
2018-06-04T11:25:39.241Z,31.00
2018-06-04T11:28:07.729Z,30.80
2018-06-04T11:30:36.231Z,30.80
2018-06-04T11:33:04.719Z,29.70
2018-06-04T11:35:33.411Z,29.80
2018-06-04T11:38:01.908Z,30.30
2018-06-04T11:40:30.404Z,30.60
2018-06-04T11:42:58.994Z,31.00
2018-06-04T11:45:27.470Z,31.50
2018-06-04T11:47:55.913Z,31.80
2018-06-04T11:50:24.511Z,31.90
2018-06-04T11:52:53.063Z,31.90
2018-06-04T11:55:21.796Z,31.50
2018-06-04T11:57:50.497Z,31.10
2018-06-04T12:02:47.100Z,30.00
2018-06-04T12:05:15.601Z,30.10
2018-06-04T12:07:44.172Z,30.50
2018-06-04T12:10:12.654Z,31.00
2018-06-04T12:12:41.170Z,31.10
2018-06-04T12:15:09.614Z,30.90
2018-06-04T12:17:38.313Z,30.00
2018-06-04T12:20:06.772Z,29.00
2018-06-04T12:22:35.227Z,28.40
2018-06-04T12:25:03.783Z,29.10
2018-06-04T12:27:32.366Z,29.60
2018-06-04T12:30:00.849Z,30.10
2018-06-04T12:32:29.394Z,29.90
2018-06-04T12:34:57.868Z,30.50
2018-06-04T12:37:26.353Z,30.70
2018-06-04T12:39:55.023Z,30.50
2018-06-04T12:42:23.495Z,30.00
2018-06-04T12:44:51.984Z,29.40
2018-06-04T12:47:20.458Z,29.10
2018-06-04T12:49:48.933Z,29.40
2018-06-04T12:52:17.397Z,29.90
2018-06-04T12:54:45.935Z,30.00
2018-06-04T12:57:14.414Z,30.40
2018-06-04T12:59:42.899Z,30.50
2018-06-04T13:02:11.413Z,30.60
2018-06-04T13:04:39.973Z,30.80
2018-06-04T13:07:08.400Z,31.10
2018-06-04T13:09:36.954Z,30.70
2018-06-04T13:12:05.556Z,30.00
2018-06-04T13:14:34.137Z,29.70
2018-06-04T13:17:02.739Z,29.80
2018-06-04T13:19:31.197Z,29.70
2018-06-04T13:21:59.676Z,29.40
2018-06-04T13:24:28.190Z,29.30
2018-06-04T13:26:56.640Z,29.00
2018-06-04T13:29:25.112Z,29.00
2018-06-04T13:31:53.709Z,29.20
2018-06-04T13:34:22.145Z,29.80
2018-06-04T13:36:50.664Z,30.30
2018-06-04T13:39:19.174Z,30.60
2018-06-04T13:41:47.724Z,30.60
2018-06-04T13:44:16.201Z,30.30
2018-06-04T13:46:44.703Z,30.30
2018-06-04T13:49:13.261Z,30.80
2018-06-04T13:51:41.830Z,30.90
2018-06-04T13:54:10.625Z,30.80
2018-06-04T13:56:40.444Z,30.70
2018-06-04T13:59:09.221Z,30.30
2018-06-04T14:01:37.862Z,29.70
2018-06-04T14:04:06.327Z,29.80
2018-06-04T14:06:34.800Z,29.80
2018-06-04T14:09:04.454Z,30.00
2018-06-04T14:11:32.923Z,30.10
2018-06-04T14:14:01.445Z,30.50
2018-06-04T14:16:30.086Z,30.70
2018-06-04T14:18:58.630Z,30.90
2018-06-04T14:21:27.273Z,31.10
2018-06-04T14:23:55.854Z,31.10
2018-06-04T14:26:24.450Z,31.30
2018-06-04T14:28:53.102Z,31.20
2018-06-04T14:31:21.798Z,31.30
2018-06-04T14:33:50.445Z,31.50
2018-06-04T14:36:18.990Z,31.40
2018-06-04T14:38:48.722Z,31.40
2018-06-04T14:43:45.581Z,30.30
2018-06-04T14:46:14.039Z,30.00
2018-06-04T14:48:42.770Z,29.50
2018-06-04T14:51:11.304Z,28.90
2018-06-04T14:53:40.244Z,28.80
2018-06-04T14:56:08.722Z,28.80
2018-06-04T14:58:37.234Z,29.20
2018-06-04T15:01:06.063Z,29.30
2018-06-04T15:03:34.543Z,29.50
2018-06-04T15:06:03.140Z,29.60
2018-06-04T15:08:31.595Z,29.60
2018-06-04T15:11:00.113Z,29.80
2018-06-04T15:13:28.610Z,29.80
2018-06-04T15:15:57.141Z,29.90
2018-06-04T15:18:25.714Z,29.90
2018-06-04T15:20:54.287Z,29.80
2018-06-04T15:23:22.778Z,29.60
2018-06-04T15:25:51.276Z,29.50
2018-06-04T15:28:19.787Z,29.50
2018-06-04T15:30:48.274Z,29.50
2018-06-04T15:33:16.756Z,29.60
2018-06-04T15:35:45.336Z,29.60
2018-06-04T15:38:13.834Z,29.60
2018-06-04T15:40:42.508Z,29.70
2018-06-04T15:43:11.186Z,29.70
2018-06-04T15:45:39.702Z,29.70
2018-06-04T15:48:08.324Z,29.60
2018-06-04T15:50:36.786Z,29.60
2018-06-04T15:53:05.305Z,29.70
2018-06-04T15:55:33.889Z,29.50
2018-06-04T15:58:02.397Z,29.50
2018-06-04T16:00:30.868Z,29.30
2018-06-04T16:02:59.393Z,29.10
2018-06-04T16:05:28.002Z,29.20
2018-06-04T16:07:56.477Z,29.00
2018-06-04T16:10:24.965Z,28.90
2018-06-04T16:12:53.423Z,28.70
2018-06-04T16:15:21.921Z,28.50
2018-06-04T16:17:50.398Z,28.60
2018-06-04T16:20:18.901Z,28.60
2018-06-04T16:22:47.407Z,28.60
2018-06-04T16:27:44.202Z,28.60
2018-06-04T16:30:12.716Z,28.50
2018-06-04T16:32:41.234Z,28.40
2018-06-04T16:35:09.882Z,28.40
2018-06-04T16:37:38.522Z,28.30
2018-06-04T16:40:07.293Z,28.20
2018-06-04T16:42:35.760Z,28.00
2018-06-04T16:45:04.816Z,27.80
2018-06-04T16:47:33.501Z,27.80
2018-06-04T16:50:02.300Z,27.80
2018-06-04T16:52:30.809Z,27.70
2018-06-04T16:54:59.324Z,27.70
2018-06-04T16:57:27.927Z,27.50
2018-06-04T16:59:56.425Z,27.50
2018-06-04T17:02:25.065Z,27.40
2018-06-04T17:04:53.660Z,27.40
2018-06-04T17:09:50.405Z,27.40
2018-06-04T17:12:18.859Z,27.20
2018-06-04T17:14:47.382Z,27.20
2018-06-04T17:17:15.835Z,27.10
2018-06-04T17:19:44.383Z,27.00
2018-06-04T17:22:12.860Z,26.80
2018-06-04T17:24:41.370Z,26.80
2018-06-04T17:27:09.867Z,26.80
2018-06-04T17:29:38.349Z,26.60
2018-06-04T17:32:07.150Z,26.50
2018-06-04T17:34:35.820Z,26.50
2018-06-04T17:37:04.727Z,26.40
2018-06-04T17:39:33.405Z,26.20
2018-06-04T17:42:02.240Z,26.20
2018-06-04T17:44:30.734Z,26.20
2018-06-04T17:46:59.532Z,26.20
2018-06-04T17:49:28.106Z,26.20
2018-06-04T17:51:56.615Z,26.10
2018-06-04T17:54:25.077Z,26.00
2018-06-04T17:56:53.558Z,25.90
2018-06-04T17:59:22.180Z,25.80
2018-06-04T18:01:50.835Z,25.70
2018-06-04T18:04:19.299Z,25.60
2018-06-04T18:06:47.919Z,25.50
2018-06-04T18:09:16.495Z,25.40
2018-06-04T18:11:45.103Z,25.30
2018-06-04T18:14:13.648Z,25.20
2018-06-04T18:16:42.136Z,25.10
2018-06-04T18:19:10.742Z,25.10
2018-06-04T18:21:39.256Z,25.00
2018-06-04T18:26:35.998Z,24.70
2018-06-04T18:29:04.716Z,24.70
2018-06-04T18:31:33.276Z,24.60
2018-06-04T18:34:01.779Z,24.50
2018-06-04T18:36:30.332Z,24.50
2018-06-04T18:38:58.853Z,24.40
2018-06-04T18:41:27.402Z,24.20
2018-06-04T18:43:55.862Z,24.20
2018-06-04T18:46:24.382Z,24.00
2018-06-04T18:48:53.161Z,23.90
2018-06-04T18:51:21.768Z,23.70
2018-06-04T18:53:50.324Z,23.60
2018-06-04T18:56:18.787Z,23.60
2018-06-04T18:58:47.257Z,23.40
2018-06-04T19:01:15.775Z,23.30
2018-06-04T19:03:44.366Z,23.20
2018-06-04T19:06:12.940Z,23.10
2018-06-04T19:08:41.660Z,23.00
2018-06-04T19:11:10.134Z,22.90
2018-06-04T19:13:38.757Z,22.90
2018-06-04T19:16:07.349Z,22.90
2018-06-04T19:18:35.864Z,22.80
2018-06-04T19:21:04.345Z,22.70
2018-06-04T19:23:32.926Z,22.60
2018-06-04T19:26:01.530Z,22.60
2018-06-04T19:28:30.064Z,22.60
2018-06-04T19:30:58.567Z,22.50
2018-06-04T19:33:27.150Z,22.40
2018-06-04T19:35:55.830Z,22.40
2018-06-04T19:38:24.672Z,22.30
2018-06-04T19:40:53.284Z,22.30
2018-06-04T19:43:21.955Z,22.20
2018-06-04T19:45:50.571Z,22.20
2018-06-04T19:48:19.102Z,22.10
2018-06-04T19:50:47.927Z,22.00
2018-06-04T19:53:16.427Z,22.00
2018-06-04T19:55:45.018Z,21.90
2018-06-04T19:58:13.691Z,21.80
2018-06-04T20:00:42.213Z,21.80
2018-06-04T20:03:10.890Z,21.70
2018-06-04T20:05:39.630Z,21.60
2018-06-04T20:08:08.212Z,21.50
2018-06-04T20:10:36.837Z,21.40
2018-06-04T20:13:05.523Z,21.40
2018-06-04T20:15:34.248Z,21.30
2018-06-04T20:18:02.995Z,21.20
2018-06-04T20:20:31.531Z,21.10
2018-06-04T20:23:00.006Z,21.00
2018-06-04T20:25:28.486Z,21.00
2018-06-04T20:27:57.011Z,21.10
2018-06-04T20:30:25.685Z,21.00
2018-06-04T20:32:54.141Z,20.90
2018-06-04T20:35:22.709Z,20.90
2018-06-04T20:37:51.199Z,20.80
2018-06-04T20:40:19.764Z,20.80
2018-06-04T20:42:48.262Z,20.70
2018-06-04T20:45:16.756Z,20.60
2018-06-04T20:47:45.443Z,20.60
2018-06-04T20:50:14.005Z,20.60
2018-06-04T20:52:42.572Z,20.50
2018-06-04T20:55:11.164Z,20.50
2018-06-04T20:57:39.884Z,20.50
2018-06-04T21:00:08.420Z,20.50
2018-06-04T21:02:36.942Z,20.40
2018-06-04T21:07:33.709Z,20.40
2018-06-04T21:10:02.226Z,20.40
2018-06-04T21:12:30.715Z,20.40
2018-06-04T21:14:59.206Z,20.40
2018-06-04T21:17:27.715Z,20.30
2018-06-04T21:19:56.363Z,20.30
2018-06-04T21:22:24.946Z,20.30
2018-06-04T21:24:53.435Z,20.30
2018-06-04T21:27:21.911Z,20.20
2018-06-04T21:29:50.395Z,20.10
2018-06-04T21:32:18.857Z,20.10
2018-06-04T21:34:47.348Z,20.10
2018-06-04T21:37:15.809Z,20.10
2018-06-04T21:39:44.479Z,20.10
2018-06-04T21:42:13.037Z,20.10
2018-06-04T21:44:41.567Z,20.00
2018-06-04T21:47:10.055Z,20.00
2018-06-04T21:49:38.762Z,20.00
2018-06-04T21:52:07.357Z,20.00
2018-06-04T21:54:35.874Z,19.90
2018-06-04T21:57:04.642Z,19.90
2018-06-04T21:59:33.088Z,19.90
2018-06-04T22:02:02.275Z,19.80
2018-06-04T22:04:30.787Z,19.70
2018-06-04T22:06:59.584Z,19.70
2018-06-04T22:09:28.054Z,19.60
2018-06-04T22:11:56.574Z,19.60
2018-06-04T22:14:25.214Z,19.60
2018-06-04T22:16:53.831Z,19.60
2018-06-04T22:19:22.227Z,19.60
2018-06-04T22:21:50.724Z,19.60
2018-06-04T22:24:22.130Z,19.50
2018-06-04T22:26:50.735Z,19.40
2018-06-04T22:29:19.310Z,19.40
2018-06-04T22:31:47.807Z,19.30
2018-06-04T22:34:16.393Z,19.20
2018-06-04T22:36:44.960Z,19.20
2018-06-04T22:39:13.584Z,19.10
2018-06-04T22:41:42.102Z,19.10
2018-06-04T22:44:10.570Z,19.10
2018-06-04T22:49:07.914Z,18.90
2018-06-04T22:51:36.531Z,18.80
2018-06-04T22:54:05.151Z,18.80
2018-06-04T22:56:34.706Z,18.70
2018-06-04T22:59:03.222Z,18.70
2018-06-04T23:01:31.728Z,18.60
2018-06-04T23:04:00.213Z,18.60
2018-06-04T23:06:28.776Z,18.50
2018-06-04T23:08:57.370Z,18.50
2018-06-04T23:11:25.830Z,18.50
2018-06-04T23:13:54.316Z,18.50
2018-06-04T23:16:22.789Z,18.40
2018-06-04T23:18:51.294Z,18.40
2018-06-04T23:21:19.915Z,18.40
2018-06-04T23:23:48.378Z,18.30
2018-06-04T23:26:17.001Z,18.30
2018-06-04T23:28:45.533Z,18.20
2018-06-04T23:31:14.067Z,18.20
2018-06-04T23:33:42.519Z,18.20
2018-06-04T23:36:11.050Z,18.10
2018-06-04T23:38:39.510Z,18.10
2018-06-04T23:41:08.001Z,18.10
2018-06-04T23:43:36.458Z,18.00
2018-06-04T23:46:04.940Z,17.90
2018-06-04T23:48:34.005Z,17.90
2018-06-04T23:51:03.280Z,17.80
2018-06-04T23:53:31.728Z,17.70
2018-06-04T23:56:00.203Z,17.60
2018-06-04T23:58:28.737Z,17.60
